Thursday, October 18, 2018, 2:56 PM GMT
Back to Local

CWAF, Ile Rouge Meteorological Aeronautical Presentation System

Location: , , Canada Lat: 48.083
Local Time: 2:56 PM GMT (14:56 GMT) Lon: -69.55
Time Zone: GMT Elev: 16 ft

Show me the last for .
Show Coded

Time T Td Feel RH Dir Speed Gust Alt SLP Vis Weather Sky Remarks
2018-10-18 14:00 36 26 22 66 300° 26 33 - - 0 Peak wind: 36 mph (32 kts) from 300° at 32 min
2018-10-18 13:00 34 26 20 71 290° 29 36 - - 0 Peak wind: 39 mph (34 kts) from 290° at 06 min
2018-10-18 12:00 36 26 21 68 310° 29 37 - - 0 Peak wind: 39 mph (34 kts) from 300° at 11 min
2018-10-18 11:00 35 25 22 66 310° 28 33 - - 0 Peak wind: 36 mph (32 kts) from 300° at 16 min
2018-10-18 10:00 36 27 22 68 310° 28 33 - - 0 Peak wind: 39 mph (34 kts) from 300° at 00 min
2018-10-18 09:00 36 28 22 72 300° 29 37 - - 0 Peak wind: 36 mph (32 kts) from 300° at 16 min
2018-10-18 08:00 36 29 23 75 290° 26 33 - - 0 Peak wind: 35 mph (31 kts) from 290° at 13 min
2018-10-18 07:00 36 26 24 65 290° 28 - - - 0 Peak wind: 35 mph (31 kts) from 290° at 26 min
2018-10-18 06:00 37 27 24 68 300° 22 30 - - 0 Peak wind: 29 mph (26 kts) from 300° at 51 min
2018-10-18 05:00 37 28 26 68 290° 17 24 - - 0 Peak wind: 39 mph (34 kts) from 310° at 02 min
2018-10-18 04:00 38 29 25 71 300° 29 35 - - 0 Peak wind: 39 mph (34 kts) from 300° at 42 min
2018-10-18 03:00 38 29 26 67 310° 24 33 - - 0 Peak wind: 34 mph (30 kts) from 300° at 01 min
2018-10-18 02:00 39 30 26 68 310° 30 38 - - 0 Peak wind: 42 mph (37 kts) from 310° at 44 min
2018-10-18 01:00 39 31 27 70 300° 25 31 - - 0 Peak wind: 31 mph (27 kts) from 290° at 00 min
2018-10-18 00:00 40 32 29 71 290° 26 33 - - 0 Peak wind: 33 mph (29 kts) from 310° at 21 min
2018-10-17 23:00 41 32 32 68 290° 22 - - - 0 Peak wind: 27 mph (24 kts) from 270° at 47 min
2018-10-17 22:00 42 34 34 73 260° 14 - - - 0 Peak wind: 24 mph (21 kts) from 260° at 41 min
2018-10-17 21:00 42 33 36 70 320° 10 - - - 0 Peak wind: 32 mph (28 kts) from 290° at 26 min
2018-10-17 20:00 42 32 31 65 300° 26 32 - - 0 Peak wind: 32 mph (28 kts) from 290° at 54 min
2018-10-17 19:00 42 36 31 78 300° 28 - - - 0 Peak wind: 36 mph (32 kts) from 310° at 49 min
2018-10-17 18:00 45 38 - 75 260° 2 - - - 0 Peak wind: 32 mph (28 kts) from 220° at 05 min
2018-10-17 17:00 44 41 33 90 210° 23 30 - - 0 Peak wind: 31 mph (27 kts) from 210° at 08 min
2018-10-17 16:00 44 40 34 85 210° 26 - - - 0 Peak wind: 32 mph (28 kts) from 210° at 46 min
2018-10-17 15:00 44 40 35 85 210° 23 - - - 0 Peak wind: 28 mph (25 kts) from 220° at 09 min

Support USWX by starting your Amazon purchase here.